createdAt,value
2018-04-19T00:00:36.182Z,100443.63
2018-04-19T00:03:03.801Z,100437.63
2018-04-19T00:05:31.395Z,100436.08
2018-04-19T00:07:58.979Z,100439.19
2018-04-19T00:10:26.589Z,100432.27
2018-04-19T00:12:54.119Z,100435.29
2018-04-19T00:15:21.698Z,100438.59
2018-04-19T00:17:49.223Z,100441.42
2018-04-19T00:20:16.774Z,100437.44
2018-04-19T00:22:44.329Z,100429.47
2018-04-19T00:25:11.904Z,100427.30
2018-04-19T00:27:39.436Z,100428.42
2018-04-19T00:30:07.034Z,100425.17
2018-04-19T00:32:34.557Z,100419.55
2018-04-19T00:35:02.113Z,100419.72
2018-04-19T00:37:29.674Z,100426.01
2018-04-19T00:39:57.244Z,100427.22
2018-04-19T00:42:24.776Z,100424.72
2018-04-19T00:44:52.350Z,100426.03
2018-04-19T00:47:20.552Z,100420.94
2018-04-19T00:49:48.156Z,100421.39
2018-04-19T00:52:15.707Z,100419.11
2018-04-19T00:54:43.277Z,100420.45
2018-04-19T00:57:10.811Z,100420.69
2018-04-19T00:59:38.481Z,100421.64
2018-04-19T01:02:06.014Z,100417.97
2018-04-19T01:04:33.618Z,100421.01
2018-04-19T01:07:01.142Z,100418.58
2018-04-19T01:09:28.732Z,100415.47
2018-04-19T01:11:56.270Z,100411.94
2018-04-19T01:14:23.954Z,100409.70
2018-04-19T01:16:52.130Z,100415.90
2018-04-19T01:19:19.742Z,100413.53
2018-04-19T01:21:47.310Z,100415.64
2018-04-19T01:24:14.835Z,100416.58
2018-04-19T01:26:42.483Z,100414.69
2018-04-19T01:29:10.108Z,100421.70
2018-04-19T01:31:37.651Z,100423.77
2018-04-19T01:34:05.197Z,100425.41
2018-04-19T01:36:32.821Z,100424.85
2018-04-19T01:39:00.369Z,100423.98
2018-04-19T01:41:27.925Z,100424.83
2018-04-19T01:43:55.487Z,100427.25
2018-04-19T01:46:23.054Z,100420.34
2018-04-19T01:48:50.581Z,100416.89
2018-04-19T01:51:18.139Z,100421.31
2018-04-19T01:53:45.661Z,100414.92
2018-04-19T01:56:13.214Z,100413.29
2018-04-19T01:58:40.742Z,100408.57
2018-04-19T02:01:08.319Z,100412.10
2018-04-19T02:03:35.845Z,100409.13
2018-04-19T02:06:03.402Z,100413.39
2018-04-19T02:08:30.926Z,100423.30
2018-04-19T02:10:58.502Z,100418.62
2018-04-19T02:13:26.058Z,100419.56
2018-04-19T02:15:53.605Z,100412.09
2018-04-19T02:18:21.133Z,100416.41
2018-04-19T02:20:48.738Z,100410.64
2018-04-19T02:23:16.266Z,100415.28
2018-04-19T02:25:45.794Z,100411.03
2018-04-19T02:28:13.402Z,100412.36
2018-04-19T02:30:40.975Z,100408.97
2018-04-19T02:33:08.520Z,100408.69
2018-04-19T02:35:36.198Z,100412.70
2018-04-19T02:38:03.753Z,100408.30
2018-04-19T02:40:31.330Z,100410.48
2018-04-19T02:42:58.969Z,100410.19
2018-04-19T02:45:26.522Z,100412.26
2018-04-19T02:47:54.086Z,100412.45
2018-04-19T02:50:22.413Z,100413.52
2018-04-19T02:52:49.982Z,100412.16
2018-04-19T02:55:17.544Z,100420.14
2018-04-19T02:57:45.101Z,100422.48
2018-04-19T03:00:12.699Z,100419.01
2018-04-19T03:02:40.274Z,100415.78
2018-04-19T03:05:07.827Z,100415.51
2018-04-19T03:07:35.382Z,100416.38
2018-04-19T03:10:02.983Z,100414.16
2018-04-19T03:12:30.583Z,100420.14
2018-04-19T03:14:58.109Z,100425.91
2018-04-19T03:17:25.719Z,100421.89
2018-04-19T03:19:53.291Z,100421.18
2018-04-19T03:22:20.943Z,100431.77
2018-04-19T03:24:48.469Z,100423.66
2018-04-19T03:27:16.022Z,100418.41
2018-04-19T03:29:43.566Z,100424.91
2018-04-19T03:32:11.130Z,100422.12
2018-04-19T03:34:38.654Z,100422.40
2018-04-19T03:37:06.207Z,100415.70
2018-04-19T03:39:33.739Z,100419.70
2018-04-19T03:42:01.313Z,100415.55
2018-04-19T03:44:28.875Z,100413.03
2018-04-19T03:46:56.536Z,100411.58
2018-04-19T03:49:24.061Z,100412.27
2018-04-19T03:51:52.680Z,100415.55
2018-04-19T03:54:20.222Z,100424.89
2018-04-19T03:56:47.799Z,100420.13
2018-04-19T03:59:15.357Z,100425.62
2018-04-19T04:01:42.920Z,100429.48
2018-04-19T04:04:10.458Z,100422.28
2018-04-19T04:06:38.028Z,100425.14
2018-04-19T04:09:06.457Z,100424.78
2018-04-19T04:11:34.014Z,100425.36
2018-04-19T04:14:01.543Z,100422.22
2018-04-19T04:16:40.910Z,100418.65
2018-04-19T04:19:20.411Z,100422.92
2018-04-19T04:21:59.825Z,100417.45
2018-04-19T04:24:27.350Z,100418.04
2018-04-19T04:26:54.925Z,100415.81
2018-04-19T04:29:22.701Z,100400.63
2018-04-19T04:31:51.164Z,100413.02
2018-04-19T04:34:18.737Z,100407.00
2018-04-19T04:36:46.265Z,100407.91
2018-04-19T04:39:13.837Z,100418.58
2018-04-19T04:41:41.389Z,100410.27
2018-04-19T04:44:11.386Z,100414.89
2018-04-19T04:46:39.123Z,100410.07
2018-04-19T04:49:06.794Z,100411.22
2018-04-19T04:51:34.323Z,100410.02
2018-04-19T04:54:01.924Z,100421.11
2018-04-19T04:56:29.457Z,100411.67
2018-04-19T04:58:57.033Z,100416.27
2018-04-19T05:01:24.589Z,100416.20
2018-04-19T05:03:52.873Z,100398.31
2018-04-19T05:06:21.142Z,100414.47
2018-04-19T05:08:48.741Z,100416.73
2018-04-19T05:11:16.292Z,100419.70
2018-04-19T05:13:44.820Z,100415.05
2018-04-19T05:16:12.430Z,100416.48
2018-04-19T05:18:40.025Z,100418.28
2018-04-19T05:21:10.273Z,100419.69
2018-04-19T05:23:37.831Z,100412.30
2018-04-19T05:26:05.405Z,100424.89
2018-04-19T05:28:32.967Z,100419.97
2018-04-19T05:31:04.442Z,100424.79
2018-04-19T05:33:34.041Z,100417.89
2018-04-19T05:36:02.468Z,100421.74
2018-04-19T05:38:30.195Z,100418.95
2018-04-19T05:40:57.718Z,100416.03
2018-04-19T05:43:25.298Z,100416.50
2018-04-19T05:45:52.851Z,100416.48
2018-04-19T05:48:20.425Z,100420.37
2018-04-19T05:50:47.954Z,100421.91
2018-04-19T05:53:15.525Z,100416.68
2018-04-19T05:55:43.188Z,100416.10
2018-04-19T05:58:10.761Z,100414.92
2018-04-19T06:00:38.296Z,100417.48
2018-04-19T06:03:05.919Z,100409.61
2018-04-19T06:05:33.413Z,100415.27
2018-04-19T06:08:00.975Z,100415.82
2018-04-19T06:10:28.535Z,100413.38
2018-04-19T06:12:56.098Z,100412.34
2018-04-19T06:15:23.764Z,100406.48
2018-04-19T06:17:51.404Z,100411.91
2018-04-19T06:20:19.007Z,100407.95
2018-04-19T06:22:46.563Z,100414.94
2018-04-19T06:25:14.159Z,100411.62
2018-04-19T06:27:41.711Z,100405.97
2018-04-19T06:30:09.294Z,100409.31
2018-04-19T06:32:36.819Z,100411.58
2018-04-19T06:35:04.397Z,100407.58
2018-04-19T06:37:31.937Z,100401.97
2018-04-19T06:39:59.498Z,100401.77
2018-04-19T06:42:27.024Z,100399.13
2018-04-19T06:44:57.925Z,100399.31
2018-04-19T06:47:25.678Z,100393.51
2018-04-19T06:49:53.231Z,100398.53
2018-04-19T06:52:20.845Z,100397.78
2018-04-19T06:54:48.414Z,100399.42
2018-04-19T06:57:15.938Z,100396.28
2018-04-19T06:59:43.635Z,100397.28
2018-04-19T07:02:11.293Z,100390.53
2018-04-19T07:04:41.594Z,100390.94
2018-04-19T07:07:09.198Z,100386.13
2018-04-19T07:09:36.780Z,100393.56
2018-04-19T07:12:04.698Z,100399.33
2018-04-19T07:14:32.307Z,100399.12
2018-04-19T07:16:59.921Z,100401.88
2018-04-19T07:19:27.509Z,100403.09
2018-04-19T07:21:55.063Z,100397.67
2018-04-19T07:24:23.119Z,100396.30
2018-04-19T07:26:50.773Z,100390.81
2018-04-19T07:29:18.622Z,100395.48
2018-04-19T07:31:46.418Z,100392.23
2018-04-19T07:34:14.502Z,100393.09
2018-04-19T07:36:42.099Z,100397.47
2018-04-19T07:39:09.677Z,100401.14
2018-04-19T07:41:37.204Z,100398.82
2018-04-19T07:44:04.832Z,100400.50
2018-04-19T07:46:32.402Z,100405.74
2018-04-19T07:49:00.233Z,100396.14
2018-04-19T07:51:27.849Z,100401.76
2018-04-19T07:53:55.369Z,100402.33
2018-04-19T07:56:22.944Z,100397.95
2018-04-19T07:58:50.494Z,100391.34
2018-04-19T08:01:18.071Z,100391.48
2018-04-19T08:03:45.599Z,100384.83
2018-04-19T08:06:13.177Z,100384.70
2018-04-19T08:08:40.702Z,100388.03
2018-04-19T08:11:08.381Z,100382.73
2018-04-19T08:13:36.379Z,100386.73
2018-04-19T08:16:04.034Z,100391.47
2018-04-19T08:18:31.561Z,100380.84
2018-04-19T08:20:59.119Z,100387.80
2018-04-19T08:23:26.692Z,100388.86
2018-04-19T08:25:54.364Z,100386.10
2018-04-19T08:28:21.898Z,100382.89
2018-04-19T08:30:49.474Z,100383.19
2018-04-19T08:33:17.026Z,100378.87
2018-04-19T08:35:44.574Z,100373.30
2018-04-19T08:38:12.106Z,100368.84
2018-04-19T08:40:39.709Z,100376.88
2018-04-19T08:43:07.279Z,100370.82
2018-04-19T08:45:34.848Z,100372.86
2018-04-19T08:48:02.389Z,100372.61
2018-04-19T08:50:29.966Z,100370.38
2018-04-19T08:52:57.522Z,100364.55
2018-04-19T08:55:25.475Z,100356.22
2018-04-19T08:57:54.492Z,100372.09
2018-04-19T09:00:22.094Z,100376.09
2018-04-19T09:02:49.718Z,100377.91
2018-04-19T09:05:17.285Z,100376.33
2018-04-19T09:07:44.912Z,100376.37
2018-04-19T09:10:12.484Z,100371.61
2018-04-19T09:12:40.010Z,100375.55
2018-04-19T09:15:07.591Z,100369.48
2018-04-19T09:17:35.155Z,100366.80
2018-04-19T09:20:02.718Z,100365.48
2018-04-19T09:22:31.830Z,100373.22
2018-04-19T09:24:59.526Z,100375.39
2018-04-19T09:27:27.500Z,100378.62
2018-04-19T09:29:55.493Z,100374.75
2018-04-19T09:32:23.531Z,100375.02
2018-04-19T09:34:51.282Z,100371.18
2018-04-19T09:37:19.308Z,100375.55
2018-04-19T09:39:47.189Z,100362.48
2018-04-19T09:42:14.888Z,100370.70
2018-04-19T09:44:42.713Z,100381.21
2018-04-19T09:47:10.266Z,100375.54
2018-04-19T09:49:39.695Z,100374.63
2018-04-19T09:52:07.374Z,100372.63
2018-04-19T09:54:38.525Z,100370.64
2018-04-19T09:57:08.230Z,100370.97
2018-04-19T09:59:38.014Z,100371.05
2018-04-19T10:02:07.847Z,100372.62
2018-04-19T10:04:37.907Z,100366.20
2018-04-19T10:07:06.577Z,100360.11
2018-04-19T10:09:35.362Z,100367.78
2018-04-19T10:12:03.541Z,100366.84
2018-04-19T10:14:32.843Z,100364.97
2018-04-19T10:17:06.557Z,100358.47
2018-04-19T10:19:35.091Z,100348.98
2018-04-19T10:22:03.430Z,100351.09
2018-04-19T10:24:31.327Z,100352.89
2018-04-19T10:26:58.879Z,100356.41
2018-04-19T10:29:26.882Z,100346.08
2018-04-19T10:31:54.458Z,100347.42
2018-04-19T10:34:24.303Z,100341.87
2018-04-19T10:36:52.562Z,100341.11
2018-04-19T10:39:21.068Z,100341.09
2018-04-19T10:41:51.443Z,100346.69
2018-04-19T10:44:19.195Z,100337.77
2018-04-19T10:46:46.998Z,100334.20
2018-04-19T10:49:17.803Z,100335.27
2018-04-19T10:51:47.703Z,100333.61
2018-04-19T10:54:15.310Z,100330.75
2018-04-19T10:56:44.959Z,100329.47
2018-04-19T10:59:13.425Z,100328.13
2018-04-19T11:01:41.611Z,100320.70
2018-04-19T11:04:10.487Z,100319.77
2018-04-19T11:06:38.145Z,100321.16
2018-04-19T11:09:05.919Z,100322.19
2018-04-19T11:11:36.445Z,100313.34
2018-04-19T11:14:06.278Z,100309.55
2018-04-19T11:16:37.596Z,100310.31
2018-04-19T11:19:08.948Z,100305.62
2018-04-19T11:21:38.080Z,100301.27
2018-04-19T11:24:08.531Z,100304.66
2018-04-19T11:26:40.657Z,100305.33
2018-04-19T11:29:11.710Z,100308.62
2018-04-19T11:31:39.871Z,100295.09
2018-04-19T11:34:11.105Z,100295.75
2018-04-19T11:36:41.839Z,100291.02
2018-04-19T11:39:14.294Z,100288.52
2018-04-19T11:41:43.870Z,100283.86
2018-04-19T11:44:13.201Z,100286.84
2018-04-19T11:46:41.306Z,100284.73
2018-04-19T11:49:12.673Z,100282.60
2018-04-19T11:51:44.406Z,100288.89
2018-04-19T11:54:12.107Z,100283.58
2018-04-19T11:56:41.391Z,100279.60
2018-04-19T11:59:12.824Z,100284.92
2018-04-19T12:01:40.914Z,100281.43
2018-04-19T12:04:08.500Z,100284.35
2018-04-19T12:06:36.034Z,100279.92
2018-04-19T12:09:03.673Z,100280.05
2018-04-19T12:11:31.226Z,100279.41
2018-04-19T12:13:58.778Z,100273.20
2018-04-19T12:16:27.124Z,100271.73
2018-04-19T12:18:54.707Z,100276.85
2018-04-19T12:21:22.263Z,100275.78
2018-04-19T12:23:49.836Z,100275.51
2018-04-19T12:26:17.401Z,100263.27
2018-04-19T12:28:44.991Z,100267.72
2018-04-19T12:31:12.591Z,100275.30
2018-04-19T12:33:40.175Z,100265.08
2018-04-19T12:36:07.702Z,100264.73
2018-04-19T12:38:35.248Z,100260.14
2018-04-19T12:41:02.779Z,100259.03
2018-04-19T12:43:30.353Z,100258.80
2018-04-19T12:45:57.936Z,100252.33
2018-04-19T12:48:25.860Z,100256.48
2018-04-19T12:50:54.316Z,100260.14
2018-04-19T12:53:21.937Z,100261.33
2018-04-19T12:55:50.012Z,100254.38
2018-04-19T12:58:17.649Z,100246.27
2018-04-19T13:00:45.770Z,100238.58
2018-04-19T13:03:13.624Z,100235.53
2018-04-19T13:05:42.240Z,100250.67
2018-04-19T13:08:09.801Z,100247.13
2018-04-19T13:10:37.332Z,100244.08
2018-04-19T13:13:08.956Z,100250.33
2018-04-19T13:15:42.735Z,100243.03
2018-04-19T13:18:15.329Z,100243.52
2018-04-19T13:20:49.486Z,100241.20
2018-04-19T13:23:22.918Z,100241.30
2018-04-19T13:25:55.620Z,100230.67
2018-04-19T13:28:29.244Z,100224.80
2018-04-19T13:31:01.147Z,100215.61
2018-04-19T13:33:33.899Z,100229.40
2018-04-19T13:36:05.453Z,100217.84
2018-04-19T13:38:40.725Z,100223.45
2018-04-19T13:43:55.616Z,100217.11
2018-04-19T13:46:29.180Z,100208.81
2018-04-19T13:49:01.166Z,100204.38
2018-04-19T13:51:29.118Z,100201.16
2018-04-19T13:53:59.669Z,100197.53
2018-04-19T13:56:28.114Z,100202.48
2018-04-19T13:58:56.072Z,100193.58
2018-04-19T14:01:24.584Z,100188.92
2018-04-19T14:03:53.074Z,100187.28
2018-04-19T14:06:20.732Z,100187.88
2018-04-19T14:08:48.759Z,100189.17
2018-04-19T14:11:16.382Z,100186.65
2018-04-19T14:13:45.782Z,100181.91
2018-04-19T14:16:16.318Z,100182.08
2018-04-19T14:18:45.403Z,100176.51
2018-04-19T14:21:13.292Z,100176.59
2018-04-19T14:23:45.697Z,100169.23
2018-04-19T14:26:16.042Z,100174.33
2018-04-19T14:28:44.775Z,100173.19
2018-04-19T14:31:12.806Z,100171.25
2018-04-19T14:33:40.388Z,100168.52
2018-04-19T14:36:08.265Z,100173.25
2018-04-19T14:38:35.858Z,100160.18
2018-04-19T14:41:03.439Z,100160.77
2018-04-19T14:43:30.965Z,100166.45
2018-04-19T14:45:58.518Z,100159.92
2018-04-19T14:48:26.083Z,100159.17
2018-04-19T14:50:53.646Z,100159.25
2018-04-19T14:53:21.626Z,100159.88
2018-04-19T14:55:49.796Z,100155.69
2018-04-19T14:58:17.376Z,100153.54
2018-04-19T15:00:44.990Z,100151.03
2018-04-19T15:03:12.483Z,100150.02
2018-04-19T15:05:40.057Z,100146.73
2018-04-19T15:08:07.586Z,100146.02
2018-04-19T15:10:35.153Z,100138.17
2018-04-19T15:13:02.677Z,100141.38
2018-04-19T15:15:30.242Z,100146.52
2018-04-19T15:17:57.777Z,100134.54
2018-04-19T15:20:25.448Z,100135.39
2018-04-19T15:22:52.978Z,100139.78
2018-04-19T15:25:20.526Z,100137.00
2018-04-19T15:27:48.100Z,100135.97
2018-04-19T15:30:15.655Z,100135.19
2018-04-19T15:32:43.174Z,100132.61
2018-04-19T15:35:10.742Z,100130.55
2018-04-19T15:37:38.261Z,100132.72
2018-04-19T15:40:05.814Z,100128.33
2018-04-19T15:42:33.362Z,100128.37
2018-04-19T15:45:00.973Z,100129.53
2018-04-19T15:47:29.217Z,100129.74
2018-04-19T15:49:58.482Z,100134.44
2018-04-19T15:52:26.130Z,100133.91
2018-04-19T15:54:54.439Z,100127.89
2018-04-19T15:57:22.028Z,100128.11
2018-04-19T15:59:49.609Z,100128.11
2018-04-19T16:02:17.185Z,100138.66
2018-04-19T16:04:44.738Z,100134.12
2018-04-19T16:07:12.258Z,100127.77
2018-04-19T16:09:40.810Z,100120.97
2018-04-19T16:12:08.370Z,100125.19
2018-04-19T16:14:35.898Z,100130.42
2018-04-19T16:17:04.444Z,100126.66
2018-04-19T16:19:32.130Z,100125.52
2018-04-19T16:21:59.965Z,100129.34
2018-04-19T16:24:27.621Z,100124.41
2018-04-19T16:26:55.526Z,100122.98
2018-04-19T16:29:23.159Z,100122.69
2018-04-19T16:31:50.730Z,100117.67
2018-04-19T16:34:18.261Z,100120.51
2018-04-19T16:36:45.832Z,100113.55
2018-04-19T16:39:13.593Z,100113.95
2018-04-19T16:41:41.246Z,100114.85
2018-04-19T16:44:14.664Z,100115.04
2018-04-19T16:46:45.900Z,100114.33
2018-04-19T16:49:18.084Z,100119.93
2018-04-19T16:51:47.795Z,100118.48
2018-04-19T16:54:16.415Z,100113.12
2018-04-19T16:56:46.789Z,100112.01
2018-04-19T16:59:15.206Z,100117.24
2018-04-19T17:01:44.151Z,100116.70
2018-04-19T17:04:12.614Z,100108.39
2018-04-19T17:06:42.147Z,100107.52
2018-04-19T17:09:13.143Z,100104.01
2018-04-19T17:11:42.657Z,100111.41
2018-04-19T17:14:11.525Z,100107.37
2018-04-19T17:16:41.707Z,100107.52
2018-04-19T17:19:10.506Z,100102.89
2018-04-19T17:21:40.919Z,100102.81
2018-04-19T17:24:12.336Z,100106.30
2018-04-19T17:26:43.250Z,100103.05
2018-04-19T17:29:13.160Z,100108.22
2018-04-19T17:31:41.567Z,100107.41
2018-04-19T17:34:12.160Z,100106.11
2018-04-19T17:36:42.283Z,100108.97
2018-04-19T17:39:12.772Z,100106.18
2018-04-19T17:41:44.276Z,100103.11
2018-04-19T17:44:13.874Z,100107.03
2018-04-19T17:46:46.208Z,100104.66
2018-04-19T17:49:17.234Z,100105.91
2018-04-19T17:51:49.133Z,100104.17
2018-04-19T17:54:17.533Z,100106.41
2018-04-19T17:56:46.261Z,100106.38
2018-04-19T17:59:15.718Z,100103.82
2018-04-19T18:01:51.304Z,100104.67
2018-04-19T18:04:23.110Z,100107.38
2018-04-19T18:06:50.773Z,100105.05
2018-04-19T18:09:18.408Z,100106.00
2018-04-19T18:11:46.071Z,100105.84
2018-04-19T18:14:13.707Z,100108.52
2018-04-19T18:16:41.274Z,100113.27
2018-04-19T18:19:08.801Z,100107.23
2018-04-19T18:21:37.127Z,100103.63
2018-04-19T18:24:04.697Z,100110.83
2018-04-19T18:26:32.263Z,100118.42
2018-04-19T18:28:59.920Z,100116.72
2018-04-19T18:31:27.674Z,100120.28
2018-04-19T18:33:55.338Z,100118.73
2018-04-19T18:36:22.921Z,100117.86
2018-04-19T18:38:50.452Z,100132.55
2018-04-19T18:41:19.100Z,100125.33
2018-04-19T18:43:47.130Z,100129.47
2018-04-19T18:46:16.479Z,100133.44
2018-04-19T18:48:46.079Z,100133.52
2018-04-19T18:51:13.802Z,100135.05
2018-04-19T18:53:41.470Z,100126.59
2018-04-19T18:56:09.003Z,100140.30
2018-04-19T18:58:37.226Z,100143.95
2018-04-19T19:03:55.174Z,100139.17
2018-04-19T19:06:23.106Z,100145.20
2018-04-19T19:08:51.134Z,100140.60
2018-04-19T19:11:18.857Z,100153.92
2018-04-19T19:13:46.483Z,100147.66
2018-04-19T19:16:14.089Z,100152.22
2018-04-19T19:18:53.535Z,100158.63
2018-04-19T19:21:21.066Z,100163.48
2018-04-19T19:23:48.634Z,100158.84
2018-04-19T19:26:16.170Z,100165.23
2018-04-19T19:28:43.731Z,100162.47
2018-04-19T19:31:11.268Z,100172.41
2018-04-19T19:33:38.860Z,100169.22
2018-04-19T19:36:06.623Z,100182.11
2018-04-19T19:38:34.257Z,100181.48
2018-04-19T19:41:01.788Z,100177.03
2018-04-19T19:43:30.158Z,100180.19
2018-04-19T19:45:57.707Z,100184.19
2018-04-19T19:48:25.264Z,100179.02
2018-04-19T19:50:52.791Z,100178.41
2018-04-19T19:53:20.843Z,100179.52
2018-04-19T19:55:48.376Z,100176.41
2018-04-19T19:58:15.947Z,100176.09
2018-04-19T20:00:43.554Z,100177.09
2018-04-19T20:03:12.054Z,100170.11
2018-04-19T20:05:39.607Z,100171.87
2018-04-19T20:08:07.230Z,100167.91
2018-04-19T20:10:34.757Z,100173.98
2018-04-19T20:13:02.314Z,100170.95
2018-04-19T20:15:29.869Z,100168.05
2018-04-19T20:17:57.448Z,100174.57
2018-04-19T20:20:24.970Z,100176.07
2018-04-19T20:22:52.519Z,100167.66
2018-04-19T20:25:20.072Z,100167.29
2018-04-19T20:27:47.654Z,100174.91
2018-04-19T20:30:15.180Z,100172.91
2018-04-19T20:32:42.728Z,100170.41
2018-04-19T20:35:10.258Z,100172.85
2018-04-19T20:37:37.811Z,100174.22
2018-04-19T20:40:05.362Z,100170.62
2018-04-19T20:42:32.914Z,100170.56
2018-04-19T20:45:00.442Z,100174.73
2018-04-19T20:47:28.145Z,100174.75
2018-04-19T20:49:55.694Z,100173.73
2018-04-19T20:52:23.220Z,100173.56
2018-04-19T20:54:50.769Z,100175.42
2018-04-19T20:57:18.302Z,100169.13
2018-04-19T20:59:45.871Z,100175.58
2018-04-19T21:02:13.403Z,100172.44
2018-04-19T21:04:40.953Z,100174.50
2018-04-19T21:07:12.009Z,100173.06
2018-04-19T21:09:39.829Z,100162.48
2018-04-19T21:12:10.964Z,100174.97
2018-04-19T21:14:40.117Z,100174.80
2018-04-19T21:17:10.200Z,100169.31
2018-04-19T21:19:38.400Z,100176.38
2018-04-19T21:22:06.631Z,100173.34
2018-04-19T21:24:34.325Z,100169.39
2018-04-19T21:27:01.844Z,100168.75
2018-04-19T21:29:29.762Z,100155.17
2018-04-19T21:31:57.533Z,100163.52
2018-04-19T21:34:25.241Z,100158.55
2018-04-19T21:36:53.148Z,100156.13
2018-04-19T21:39:21.570Z,100159.45
2018-04-19T21:41:49.561Z,100155.71
2018-04-19T21:44:17.443Z,100155.42
2018-04-19T21:46:44.996Z,100163.45
2018-04-19T21:49:12.826Z,100158.78
2018-04-19T21:51:40.602Z,100157.28
2018-04-19T21:54:08.669Z,100158.02
2018-04-19T21:56:36.461Z,100158.98
2018-04-19T21:59:04.196Z,100163.78
2018-04-19T22:01:32.184Z,100161.58
2018-04-19T22:04:00.061Z,100168.16
2018-04-19T22:06:27.617Z,100161.95
2018-04-19T22:08:55.170Z,100149.98
2018-04-19T22:11:22.718Z,100162.47
2018-04-19T22:13:50.272Z,100161.79
2018-04-19T22:16:17.792Z,100159.11
2018-04-19T22:18:45.355Z,100155.70
2018-04-19T22:21:12.931Z,100161.38
2018-04-19T22:23:41.989Z,100158.63
2018-04-19T22:26:10.088Z,100158.10
2018-04-19T22:28:37.637Z,100144.69
2018-04-19T22:31:05.188Z,100153.38
2018-04-19T22:33:32.739Z,100151.86
2018-04-19T22:36:00.318Z,100149.77
2018-04-19T22:38:27.845Z,100147.86
2018-04-19T22:40:55.500Z,100144.23
2018-04-19T22:43:23.026Z,100143.09
2018-04-19T22:45:50.711Z,100141.95
2018-04-19T22:48:18.251Z,100142.63
2018-04-19T22:50:45.856Z,100143.25
2018-04-19T22:53:13.403Z,100139.16
2018-04-19T22:55:40.963Z,100140.27
2018-04-19T22:58:08.490Z,100151.70
2018-04-19T23:00:36.058Z,100142.22
2018-04-19T23:03:03.594Z,100151.80
2018-04-19T23:05:31.193Z,100141.64
2018-04-19T23:07:58.726Z,100142.09
2018-04-19T23:10:26.301Z,100143.26
2018-04-19T23:12:53.825Z,100141.80
2018-04-19T23:15:21.726Z,100136.70
2018-04-19T23:17:49.279Z,100134.28
2018-04-19T23:20:16.859Z,100138.67
2018-04-19T23:22:44.384Z,100134.57
2018-04-19T23:25:11.957Z,100137.70
2018-04-19T23:27:39.520Z,100136.22
2018-04-19T23:30:07.123Z,100139.86
2018-04-19T23:32:34.644Z,100140.02
2018-04-19T23:35:02.213Z,100135.36
2018-04-19T23:37:29.747Z,100135.52
2018-04-19T23:39:57.301Z,100132.67
2018-04-19T23:50:06.261Z,100121.41
2018-04-19T23:52:33.838Z,100117.44
2018-04-19T23:55:01.368Z,100116.16
2018-04-19T23:57:28.943Z,100111.99
2018-04-19T23:59:56.544Z,100108.55
